Arlington Heights, Ohio
Current Conditions -  °F | °C
As of 9:53 AM on Friday 31 Oct 2014 (Local Time) from KHAO Reporting Station
Overcast Overcast  
Wind Chill: 44°   Ceiling: 4800
Heat Index: 44°   Visibility: 9mi
Dew Point: 42°   Wind: 3mph
Humidity: 93%   Direction: 250°WSW
Pressure: 29.98"   Gusts: NA
Location:  39.236°N, 84.4599°W
Report Text: KHAO 311353Z AUTO 25003KT 9SM BKN048 OVC070 07/06 A2998 RMK AO2 SLP155 T00670056
Loading
Personal Weather Stations






























Interactive Weather Map
Tropical Storm Tracking
New forecast layout! Learn more

10-Day Weather Forecast

Advertisements
Track Severe Weather on mobile